Bookmark and Share
Track history (hours):
 

Christine Anderson

More information available from US FCC via Universal Licensing System and Coast Guard Vessel Documentation Center.

Last reported at 2014-Apr-24 03:19 UTC. Time now 2014-Apr-24 11:32 UTC.
Position N 47°10' W 122°36'.

MMSI: 366659730.

NotesDate/timePositionNaut miles runAvg speedWind from/ knotsBaromVisibWave heightAir tempDewpointWater temp
2014-Apr-24 03:19N 47°10' W 122°36'0 0.5
2014-Apr-24 02:33N 47°11' W 122°37'0 0.4
2014-Apr-24 01:32N 47°11' W 122°36'3 3.0
2014-Apr-24 00:33N 47°11' W 122°41'0 0.0
2014-Apr-23 23:31N 47°11' W 122°41'0 0.0
2014-Apr-23 22:33N 47°11' W 122°41'0 0.0
2014-Apr-23 21:33N 47°11' W 122°41'3 2.0
2014-Apr-23 20:03N 47°10' W 122°36'3 5.7
2014-Apr-23 19:34N 47°11' W 122°40'0 0.1
2014-Apr-23 17:33N 47°11' W 122°40'0 0.0
2014-Apr-23 16:33N 47°11' W 122°40'0 0.1
2014-Apr-23 15:33N 47°11' W 122°40'0 0.1
2014-Apr-23 14:34N 47°11' W 122°40'0 0.1
2014-Apr-23 13:33N 47°11' W 122°40'3 2.5
2014-Apr-23 12:32N 47°10' W 122°36'0 0.0
2014-Apr-23 03:18N 47°10' W 122°36'0 0.2
2014-Apr-23 02:31N 47°11' W 122°36'0 0.0
2014-Apr-23 01:32N 47°11' W 122°36'3 3.0
2014-Apr-23 00:33N 47°11' W 122°41'0 0.0
2014-Apr-22 23:32N 47°11' W 122°41'0 0.0
2014-Apr-22 22:33N 47°11' W 122°41'0 0.0
2014-Apr-22 21:33N 47°11' W 122°41'3 3.0
2014-Apr-22 20:32N 47°10' W 122°36'3 2.7
2014-Apr-22 19:33N 47°11' W 122°40'3 2.6
2014-Apr-22 18:31N 47°10' W 122°36'3 3.1
2014-Apr-22 17:33N 47°11' W 122°41'0 0.0
2014-Apr-22 16:33N 47°11' W 122°41'0 0.3
2014-Apr-22 15:33N 47°11' W 122°40'0 0.2
2014-Apr-22 14:33N 47°11' W 122°40'0 0.0
2014-Apr-22 13:33N 47°11' W 122°40'3 0.2
2014-Apr-22 03:17N 47°10' W 122°36'0 0.5
2014-Apr-22 02:33N 47°11' W 122°37'0 0.1
2014-Apr-22 01:32N 47°11' W 122°37'3 2.6
2014-Apr-22 00:29N 47°11' W 122°41'0 0.0
2014-Apr-21 23:28N 47°11' W 122°41'0 0.1
2014-Apr-21 22:28N 47°11' W 122°40'0 0.0
2014-Apr-21 21:27N 47°11' W 122°40'3 3.3
2014-Apr-21 20:33N 47°10' W 122°36'3 2.6
2014-Apr-21 19:32N 47°11' W 122°40'3 2.7
2014-Apr-21 18:33N 47°10' W 122°36'2 2.4
2014-Apr-21 17:33N 47°11' W 122°40'0 0.0
2014-Apr-21 16:33N 47°11' W 122°40'0 0.1
2014-Apr-21 15:33N 47°11' W 122°40'0 0.1
2014-Apr-21 14:33N 47°11' W 122°40'0 0.1
2014-Apr-21 13:33N 47°11' W 122°40'2 0.2
2014-Apr-21 04:33N 47°10' W 122°37'1 0.9
2014-Apr-21 03:33N 47°10' W 122°36'0 0.1
2014-Apr-21 02:33N 47°11' W 122°36'0 0.4
2014-Apr-21 01:33N 47°11' W 122°37'3 2.5
2014-Apr-21 00:30N 47°11' W 122°41'0 0.0
2014-Apr-20 23:28N 47°11' W 122°41'0 0.1
2014-Apr-20 22:30N 47°11' W 122°40'0 0.1
2014-Apr-20 21:30N 47°11' W 122°41'3 3.2
2014-Apr-20 20:33N 47°10' W 122°36'3 2.9
2014-Apr-20 19:29N 47°11' W 122°41'3 3.3
2014-Apr-20 18:33N 47°10' W 122°36'3 3.0
2014-Apr-20 17:33N 47°11' W 122°41'0 0.1
2014-Apr-20 16:17N 47°11' W 122°40'0 0.5
2014-Apr-20 15:33N 47°11' W 122°40'0 0.1
2014-Apr-20 14:33N 47°11' W 122°40'3 0.4
2014-Apr-20 07:17N 47°10' W 122°36'0 0.0
2014-Apr-20 06:33N 47°10' W 122°36'3 2.6
2014-Apr-20 05:33N 47°11' W 122°40'3 2.6
2014-Apr-20 04:33N 47°10' W 122°36'0 0.0
2014-Apr-20 03:31N 47°10' W 122°36'0 0.2
2014-Apr-20 02:31N 47°11' W 122°36'0 0.1
2014-Apr-20 01:12N 47°10' W 122°36'3 4.7
2014-Apr-20 00:33N 47°11' W 122°41'0 0.1
2014-Apr-19 23:29N 47°11' W 122°40'0 0.1
2014-Apr-19 22:33N 47°11' W 122°41'0 0.0
2014-Apr-19 21:33N 47°11' W 122°41'3 3.0
2014-Apr-19 20:32N 47°10' W 122°36'3 2.9
2014-Apr-19 19:33N 47°11' W 122°40'3 2.9
2014-Apr-19 18:33N 47°10' W 122°36'2 2.3
2014-Apr-19 17:33N 47°11' W 122°40'0 0.2
2014-Apr-19 16:32N 47°11' W 122°40'0 0.0
2014-Apr-19 15:32N 47°11' W 122°40'0 0.1
2014-Apr-19 14:33N 47°11' W 122°40'0 0.1
2014-Apr-19 13:33N 47°11' W 122°40'2 2.3
2014-Apr-19 12:32N 47°10' W 122°36'3 0.4
2014-Apr-19 05:32N 47°11' W 122°40'3 2.7
2014-Apr-19 04:32N 47°10' W 122°36'0 0.0
2014-Apr-19 03:32N 47°10' W 122°36'0 0.0
2014-Apr-19 02:30N 47°10' W 122°36'0 0.2
2014-Apr-19 01:32N 47°11' W 122°36'3 2.9
2014-Apr-19 00:32N 47°11' W 122°41'0 0.1
2014-Apr-18 23:26N 47°11' W 122°40'0 0.1
2014-Apr-18 22:33N 47°11' W 122°41'0 0.0
2014-Apr-18 21:27N 47°11' W 122°41'0 0.0
2014-Apr-18 19:24N 47°11' W 122°41'3 2.6
2014-Apr-18 18:13N 47°10' W 122°36'3 4.3
2014-Apr-18 17:31N 47°11' W 122°41'0 0.2
2014-Apr-18 16:32N 47°11' W 122°40'0 0.1
2014-Apr-18 15:32N 47°11' W 122°40'0 0.0
2014-Apr-18 14:32N 47°11' W 122°40'0 0.2
2014-Apr-18 13:33N 47°11' W 122°40'3 2.6
2014-Apr-18 12:33N 47°10' W 122°36'0 0.0
2014-Apr-18 04:27N 47°10' W 122°36'0 0.0
2014-Apr-18 03:33N 47°10' W 122°36'0 0.2
2014-Apr-18 02:32N 47°11' W 122°36'0 0.0
2014-Apr-18 01:32N 47°11' W 122°36'3 3.0
2014-Apr-18 00:33N 47°11' W 122°41'0 0.0
2014-Apr-17 23:32N 47°11' W 122°41'0 0.0
2014-Apr-17 22:33N 47°11' W 122°41'0 0.0
2014-Apr-17 21:33N 47°11' W 122°41'3 2.1
2014-Apr-17 20:06N 47°10' W 122°36'3 5.3
2014-Apr-17 19:33N 47°11' W 122°40'0 0.1
2014-Apr-17 17:33N 47°11' W 122°40'0 0.2
2014-Apr-17 16:33N 47°11' W 122°40'0 0.1
2014-Apr-17 15:33N 47°11' W 122°40'0 0.1
2014-Apr-17 14:33N 47°11' W 122°40'0 0.1
2014-Apr-17 13:33N 47°11' W 122°40'3 0.2
2014-Apr-17 03:17N 47°10' W 122°36'0 0.5
2014-Apr-17 02:33N 47°11' W 122°37'0 0.1
2014-Apr-17 01:32N 47°11' W 122°36'3 2.8
2014-Apr-17 00:32N 47°11' W 122°40'0 0.1
2014-Apr-16 23:31N 47°11' W 122°41'0 0.0
2014-Apr-16 22:29N 47°11' W 122°41'0 0.0
2014-Apr-16 21:29N 47°11' W 122°41'3 2.3
2014-Apr-16 20:10N 47°10' W 122°36'3 4.4
2014-Apr-16 19:29N 47°11' W 122°41'2 2.2
2014-Apr-16 18:33N 47°11' W 122°38'2 1.8
2014-Apr-16 17:33N 47°11' W 122°40'0 0.3
2014-Apr-16 16:33N 47°11' W 122°41'0 0.4
2014-Apr-16 15:33N 47°11' W 122°40'0 0.0
2014-Apr-16 14:33N 47°11' W 122°40'0 0.2
2014-Apr-16 13:33N 47°11' W 122°40'2 2.2
2014-Apr-16 12:27N 47°10' W 122°36'0 0.0
2014-Apr-16 03:19N 47°10' W 122°36'0 0.2
2014-Apr-16 02:33N 47°11' W 122°36'0 0.1
2014-Apr-16 01:32N 47°10' W 122°36'3 3.0
2014-Apr-16 00:33N 47°11' W 122°40'0 0.1
2014-Apr-15 23:29N 47°11' W 122°41'0 0.0
2014-Apr-15 22:29N 47°11' W 122°41'0 0.0
2014-Apr-15 21:33N 47°11' W 122°41'3 3.1
2014-Apr-15 20:33N 47°10' W 122°36'3 2.8
2014-Apr-15 19:33N 47°11' W 122°40'3 2.7
2014-Apr-15 18:30N 47°10' W 122°36'3 3.0
2014-Apr-15 17:30N 47°11' W 122°41'0 0.0
2014-Apr-15 16:32N 47°11' W 122°41'0 0.2
2014-Apr-15 15:33N 47°11' W 122°40'0 0.1
2014-Apr-15 14:33N 47°11' W 122°40'0 0.1
2014-Apr-15 12:33N 47°11' W 122°40'3 2.6
2014-Apr-15 11:34N 47°10' W 122°36'0 0.0
2014-Apr-15 01:33N 47°11' W 122°36'0 0.4
2014-Apr-15 00:34N 47°11' W 122°36'3 2.9
2014-Apr-14 23:34N 47°11' W 122°40'0 0.1
2014-Apr-14 22:33N 47°11' W 122°41'0 0.0
2014-Apr-14 21:33N 47°11' W 122°41'0 0.0
2014-Apr-14 20:33N 47°11' W 122°41'0 0.1
2014-Apr-14 18:34N 47°11' W 122°40'3 2.9
2014-Apr-14 17:33N 47°10' W 122°36'2 2.4
2014-Apr-14 16:33N 47°11' W 122°40'0 0.2
2014-Apr-14 15:33N 47°11' W 122°40'0 0.2
2014-Apr-14 14:33N 47°11' W 122°40'0 0.0
2014-Apr-14 13:33N 47°11' W 122°40'2 1.2
2014-Apr-14 11:33N 47°10' W 122°36'  

Dump ship's entire track history

sailing weather and tide predictions

Christine Anderson — WCN2606 — position and weather